Krymsk, Russia
Current Conditions -  °F | °C
As of 4:00 AM on Monday 24 Nov 2014 (Local Time) from URKA Reporting Station
Clear Clear  
Wind Chill: 17°   Ceiling: Unl
Heat Index: 25°   Visibility: 6mi
Dew Point: 19°   Wind: 7mph
Humidity: 80%   Direction: 20°NNE
Pressure: 30.27"   Gusts: NA
Location:  44.92°N, 37.98°E
Report Text: URKA 240100Z 02003MPS 340V050 CAVOK M04/M07 Q1025 RMKQFE765/1020
Loading
Personal Weather Stations






























Interactive Weather Map New forecast layout! Learn more

10-Day Weather Forecast

Advertisements
Track Severe Weather on mobile